Ashwaubenon, Wisconsin
Current Conditions -  °F | °C
As of 6:53 PM on Saturday 22 Nov 2014 (Local Time) from KGRB Reporting Station
Haze Haze  
Wind Chill: 32°   Ceiling: 500
Heat Index: 38°   Visibility: 2.5mi
Dew Point: 37°   Wind: 8mph
Humidity: 97%   Direction: 200°SSW
Pressure: 29.78"   Gusts: NA
Location:  44.48°N, 88.07°W
Report Text: KGRB 230053Z 20007KT 2 1/2SM BR OVC005 03/03 A2978 RMK AO2 SLP092 T00330028
Loading
Personal Weather Stations






























Interactive Weather Map New forecast layout! Learn more

10-Day Weather Forecast

Advertisements
Track Severe Weather on mobile